Time;durP1;ratioP1;P1;durP2;ratioP2;P2;SDS_P1;SDS_P2;PMS_P1;PMS_P2;Temp;Humidity;BMP_temperature;BMP_pressure;BME280_temperature;BME280_humidity;BME280_pressure;Samples;Min_cycle;Max_cycle;Signal;HPM_P1;HPM_P2
2022/03/04 00:02:01;;;;;;;38.27;13.10;;;0.00;99.90;;;;;;5093682;28;20226;-50
2022/03/04 00:04:29;;;;;;;45.87;13.53;;;0.00;99.90;;;;;;5097377;28;20962;-47
2022/03/04 00:06:57;;;;;;;48.57;13.90;;;0.00;99.90;;;;;;5102232;28;20222;-49
2022/03/04 00:09:24;;;;;;;42.90;14.10;;;0.00;99.90;;;;;;5101540;28;20200;-46
2022/03/04 00:11:51;;;;;;;52.50;14.50;;;0.00;99.90;;;;;;5098497;28;20219;-49
2022/03/04 00:14:19;;;;;;;45.33;14.23;;;0.00;99.90;;;;;;5099382;27;20906;-48
2022/03/04 00:16:46;;;;;;;28.47;13.33;;;0.00;99.90;;;;;;5102601;27;20199;-47
2022/03/04 00:19:13;;;;;;;43.20;12.60;;;0.00;99.90;;;;;;5081264;28;20874;-48
2022/03/04 00:21:41;;;;;;;25.60;12.47;;;0.00;99.90;;;;;;5103094;28;20214;-51
2022/03/04 00:24:11;;;;;;;59.90;13.57;;;0.00;99.90;;;;;;5099873;28;20213;-52
2022/03/04 00:26:39;;;;;;;29.93;12.57;;;0.10;99.90;;;;;;5103510;28;20576;-47
2022/03/04 00:29:07;;;;;;;30.97;13.00;;;0.00;99.90;;;;;;5093532;28;20210;-53
2022/03/04 00:31:35;;;;;;;32.93;11.97;;;0.00;99.90;;;;;;5097006;28;20218;-49
2022/03/04 00:34:06;;;;;;;25.90;11.80;;;0.00;99.90;;;;;;5079897;28;20716;-52
2022/03/04 00:36:34;;;;;;;48.47;14.57;;;0.00;99.90;;;;;;5096497;28;20194;-49
2022/03/04 00:39:01;;;;;;;43.50;13.13;;;0.00;99.90;;;;;;5101288;28;20202;-52
2022/03/04 00:41:29;;;;;;;58.10;15.07;;;0.00;99.90;;;;;;5100456;28;20215;-50
2022/03/04 00:43:56;;;;;;;69.00;14.80;;;0.10;99.90;;;;;;5096921;28;20211;-52
2022/03/04 00:46:23;;;;;;;58.57;13.97;;;0.00;99.90;;;;;;5094444;28;20209;-47
2022/03/04 00:48:50;;;;;;;46.87;13.23;;;0.00;99.90;;;;;;5089229;28;20208;-47
2022/03/04 00:51:18;;;;;;;30.23;12.80;;;0.00;99.90;;;;;;5099027;28;20209;-49
2022/03/04 00:53:45;;;;;;;43.17;13.83;;;-0.10;99.90;;;;;;5103493;28;20202;-51
2022/03/04 00:56:13;;;;;;;86.00;14.90;;;-0.10;99.90;;;;;;5098746;28;20191;-48
2022/03/04 00:58:41;;;;;;;90.03;15.83;;;-0.10;99.90;;;;;;5097913;28;20608;-51
2022/03/04 01:01:08;;;;;;;83.70;13.53;;;-0.10;99.90;;;;;;5100107;28;20721;-52
2022/03/04 01:03:36;;;;;;;79.20;14.17;;;-0.10;99.90;;;;;;5093156;27;20218;-50
2022/03/04 01:06:05;;;;;;;39.67;12.77;;;-0.10;99.90;;;;;;5104401;28;20205;-51
2022/03/04 01:08:32;;;;;;;50.77;13.13;;;-0.10;99.90;;;;;;5106660;28;20194;-51
2022/03/04 01:11:00;;;;;;;46.63;14.13;;;-0.10;99.90;;;;;;5105604;28;20226;-50
2022/03/04 01:13:27;;;;;;;59.77;14.30;;;0.00;99.90;;;;;;5105471;28;20275;-48
2022/03/04 01:15:56;;;;;;;66.53;14.77;;;-0.10;99.90;;;;;;5100971;28;20282;-53
2022/03/04 01:18:23;;;;;;;44.43;14.00;;;-0.10;99.90;;;;;;5090270;28;20218;-47
2022/03/04 01:20:50;;;;;;;58.93;12.57;;;-0.20;99.90;;;;;;5107221;28;20214;-52
2022/03/04 01:23:18;;;;;;;60.57;13.20;;;-0.20;99.90;;;;;;5102865;28;20211;-53
2022/03/04 01:25:44;;;;;;;43.53;12.70;;;-0.30;99.90;;;;;;5107047;28;20221;-52
2022/03/04 01:28:11;;;;;;;70.87;12.67;;;-0.30;99.90;;;;;;5102805;28;20251;-47
2022/03/04 01:30:39;;;;;;;47.10;12.80;;;-0.30;99.90;;;;;;5101902;28;20199;-51
2022/03/04 01:33:07;;;;;;;31.90;12.30;;;-0.30;99.90;;;;;;5093378;28;20193;-48
2022/03/04 01:35:36;;;;;;;28.73;10.80;;;-0.30;99.90;;;;;;5104368;28;20198;-46
2022/03/04 01:38:03;;;;;;;26.00;10.33;;;-0.30;99.90;;;;;;5103711;28;20692;-49
2022/03/04 01:40:30;;;;;;;19.17;11.13;;;-0.30;99.90;;;;;;5105532;28;20197;-47
2022/03/04 01:42:57;;;;;;;27.37;11.10;;;-0.30;99.90;;;;;;5105862;28;20211;-51
2022/03/04 01:45:24;;;;;;;28.33;11.27;;;-0.20;99.90;;;;;;5098519;28;21324;-47
2022/03/04 01:47:50;;;;;;;25.80;11.30;;;-0.20;99.90;;;;;;5106641;28;20194;-51
2022/03/04 01:50:18;;;;;;;20.67;11.23;;;-0.20;99.90;;;;;;5088641;28;20214;-50
2022/03/04 01:52:45;;;;;;;24.33;11.40;;;-0.20;99.90;;;;;;5105914;28;20235;-46
2022/03/04 01:55:12;;;;;;;29.83;11.37;;;-0.20;99.90;;;;;;5102712;28;20825;-52
2022/03/04 01:57:39;;;;;;;33.93;11.30;;;-0.30;99.90;;;;;;5106443;28;20201;-48
2022/03/04 02:00:09;;;;;;;23.00;10.43;;;-0.30;99.90;;;;;;5103374;28;20199;-50
2022/03/04 02:02:39;;;;;;;43.33;10.47;;;-0.30;99.90;;;;;;5100876;28;20266;-47
2022/03/04 02:05:06;;;;;;;47.47;12.20;;;-0.20;99.90;;;;;;5088801;28;20591;-52
2022/03/04 02:07:35;;;;;;;32.47;11.00;;;-0.30;99.90;;;;;;5104927;28;20218;-46
2022/03/04 02:10:02;;;;;;;18.40;9.00;;;-0.30;99.90;;;;;;5104124;28;20193;-52
2022/03/04 02:12:29;;;;;;;28.83;10.37;;;-0.30;99.90;;;;;;5104979;28;20234;-45
2022/03/04 02:14:56;;;;;;;21.87;9.80;;;-0.30;99.90;;;;;;5105560;28;20205;-52
2022/03/04 02:17:23;;;;;;;37.77;11.73;;;-0.30;99.90;;;;;;5097769;28;20186;-49
2022/03/04 02:19:52;;;;;;;29.13;11.20;;;-0.20;99.90;;;;;;5105779;28;20579;-49
2022/03/04 02:22:20;;;;;;;25.30;10.93;;;-0.20;99.90;;;;;;5090953;28;20233;-45
2022/03/04 02:24:47;;;;;;;49.23;11.93;;;-0.20;99.90;;;;;;5105982;28;20205;-47
2022/03/04 02:27:14;;;;;;;26.47;10.80;;;-0.30;99.90;;;;;;5093701;28;20221;-46
2022/03/04 02:29:41;;;;;;;48.37;12.47;;;-0.30;99.90;;;;;;5114188;27;20660;-51
2022/03/04 02:32:09;;;;;;;21.33;10.60;;;-0.30;99.90;;;;;;5097878;27;20218;-49
2022/03/04 02:34:36;;;;;;;19.60;10.13;;;-0.30;99.90;;;;;;5105848;28;20531;-50
2022/03/04 02:37:03;;;;;;;17.60;10.83;;;-0.30;99.90;;;;;;5087429;28;20205;-53
2022/03/04 02:39:32;;;;;;;23.17;10.83;;;-0.30;99.90;;;;;;5105076;28;20270;-50
2022/03/04 02:41:59;;;;;;;16.47;9.73;;;-0.30;99.90;;;;;;5103091;28;20221;-50
2022/03/04 02:44:26;;;;;;;56.40;10.80;;;-0.30;99.90;;;;;;5104694;28;20198;-45
2022/03/04 02:46:52;;;;;;;27.27;9.67;;;-0.30;99.90;;;;;;5102974;28;20226;-53
2022/03/04 02:49:19;;;;;;;22.70;10.50;;;-0.30;99.90;;;;;;5099324;28;20193;-47
2022/03/04 02:51:46;;;;;;;46.07;11.43;;;-0.30;99.90;;;;;;5087528;28;20229;-52
2022/03/04 02:54:13;;;;;;;39.20;11.30;;;-0.30;99.90;;;;;;5101472;28;20189;-47
2022/03/04 02:56:41;;;;;;;21.87;11.47;;;-0.30;99.90;;;;;;5105029;28;20248;-47
2022/03/04 02:59:08;;;;;;;30.53;11.27;;;-0.30;99.90;;;;;;5101288;28;20766;-49
2022/03/04 03:01:36;;;;;;;25.40;10.73;;;-0.20;99.90;;;;;;5105399;28;20226;-47
2022/03/04 03:04:03;;;;;;;25.43;11.50;;;-0.30;99.90;;;;;;5096627;28;20710;-48
2022/03/04 03:06:31;;;;;;;53.90;11.93;;;-0.20;99.90;;;;;;5104988;28;20221;-51
2022/03/04 03:08:58;;;;;;;37.20;10.63;;;-0.20;99.90;;;;;;5089404;28;20210;-53
2022/03/04 03:11:25;;;;;;;30.20;10.93;;;-0.30;99.90;;;;;;5098459;28;20205;-50
2022/03/04 03:13:53;;;;;;;23.30;10.23;;;-0.30;99.90;;;;;;5104018;28;20211;-53
2022/03/04 03:16:21;;;;;;;22.00;9.73;;;-0.20;99.90;;;;;;5102473;28;20208;-50
2022/03/04 03:18:48;;;;;;;18.20;10.10;;;-0.20;99.90;;;;;;5099389;27;20301;-52
2022/03/04 03:21:14;;;;;;;22.37;9.93;;;-0.20;99.90;;;;;;5101357;28;20202;-52
2022/03/04 03:23:42;;;;;;;24.13;9.23;;;-0.20;99.90;;;;;;5091046;28;20203;-49
2022/03/04 03:26:09;;;;;;;18.10;8.70;;;-0.20;99.90;;;;;;5099916;28;20293;-50
2022/03/04 03:28:36;;;;;;;63.43;11.93;;;-0.20;99.90;;;;;;5104598;28;20220;-47
2022/03/04 03:31:04;;;;;;;53.67;10.77;;;-0.20;99.90;;;;;;5101296;28;20224;-52
2022/03/04 03:33:31;;;;;;;20.37;10.40;;;-0.30;99.90;;;;;;5104183;28;20238;-48
2022/03/04 03:35:59;;;;;;;22.37;9.70;;;-0.30;99.90;;;;;;5096878;28;20224;-54
2022/03/04 03:38:25;;;;;;;22.20;9.40;;;-0.30;99.90;;;;;;5089682;28;21672;-52
2022/03/04 03:40:52;;;;;;;18.50;9.40;;;-0.30;99.90;;;;;;5102994;28;20225;-49
2022/03/04 03:43:19;;;;;;;22.80;9.30;;;-0.30;99.90;;;;;;5101048;28;20201;-49
2022/03/04 03:45:46;;;;;;;16.53;9.03;;;-0.30;99.90;;;;;;5104220;28;20198;-51
2022/03/04 03:48:14;;;;;;;21.17;9.50;;;-0.30;99.90;;;;;;5100101;28;20221;-50
2022/03/04 03:50:41;;;;;;;51.27;12.30;;;-0.20;99.90;;;;;;5099377;28;20665;-51
2022/03/04 03:53:09;;;;;;;27.57;9.20;;;-0.20;99.90;;;;;;5086381;28;20871;-48
2022/03/04 03:55:36;;;;;;;19.70;9.37;;;-0.20;99.90;;;;;;5104181;28;20250;-52
2022/03/04 03:58:03;;;;;;;21.30;8.93;;;-0.20;99.90;;;;;;5100229;28;20198;-48
2022/03/04 04:00:30;;;;;;;47.10;9.57;;;-0.30;99.90;;;;;;5103675;28;20293;-51
2022/03/04 04:02:57;;;;;;;18.47;9.13;;;-0.20;99.90;;;;;;5101902;28;20225;-52
2022/03/04 04:05:25;;;;;;;40.33;9.67;;;-0.20;99.90;;;;;;5092103;28;20230;-52
2022/03/04 04:07:53;;;;;;;46.53;10.67;;;-0.20;99.90;;;;;;5102310;28;20217;-48
2022/03/04 04:10:20;;;;;;;59.60;12.57;;;-0.20;99.90;;;;;;5088057;28;20205;-53
2022/03/04 04:12:47;;;;;;;38.20;9.73;;;-0.20;99.90;;;;;;5103729;28;20218;-48
2022/03/04 04:15:14;;;;;;;17.43;8.07;;;-0.30;99.90;;;;;;5099760;28;20208;-51
2022/03/04 04:17:41;;;;;;;35.77;9.80;;;-0.30;99.90;;;;;;5103819;28;20556;-47
2022/03/04 04:20:09;;;;;;;56.37;11.67;;;-0.30;99.90;;;;;;5093873;28;20204;-47
2022/03/04 04:22:37;;;;;;;64.43;11.20;;;-0.30;99.90;;;;;;5103253;28;20218;-48
2022/03/04 04:25:05;;;;;;;20.83;10.73;;;-0.40;99.90;;;;;;5086595;28;20209;-47
2022/03/04 04:27:32;;;;;;;98.50;11.37;;;-0.40;99.90;;;;;;5103083;28;20217;-49
2022/03/04 04:29:59;;;;;;;77.50;10.53;;;-0.40;99.90;;;;;;5101062;28;20689;-53
2022/03/04 04:32:26;;;;;;;77.23;10.00;;;-0.50;99.90;;;;;;5102255;28;20218;-50
2022/03/04 04:34:53;;;;;;;20.97;7.87;;;-0.60;99.90;;;;;;5100776;28;20193;-48
2022/03/04 04:37:20;;;;;;;23.13;8.57;;;-0.50;99.90;;;;;;5096543;28;20939;-49
2022/03/04 04:39:48;;;;;;;22.10;8.43;;;-0.50;99.90;;;;;;5102548;28;20554;-48
2022/03/04 04:42:15;;;;;;;32.73;7.90;;;-0.50;99.90;;;;;;5085768;28;20308;-47
2022/03/04 04:44:42;;;;;;;110.33;11.43;;;-0.50;99.90;;;;;;5109580;28;20198;-48
2022/03/04 04:47:09;;;;;;;44.73;9.23;;;-0.50;99.90;;;;;;5099130;28;20218;-49
2022/03/04 04:49:37;;;;;;;42.40;8.67;;;-0.60;99.90;;;;;;5101404;28;20250;-49
2022/03/04 04:52:05;;;;;;;43.50;8.83;;;-0.60;99.90;;;;;;5094160;28;20301;-50
2022/03/04 04:54:32;;;;;;;83.77;10.23;;;-0.60;99.90;;;;;;5103482;28;20255;-50
2022/03/04 04:57:01;;;;;;;36.63;9.67;;;-0.60;99.90;;;;;;5086661;28;20208;-53
2022/03/04 04:59:28;;;;;;;17.23;9.00;;;-0.60;99.90;;;;;;5097232;28;20216;-51
2022/03/04 05:01:55;;;;;;;33.07;9.97;;;-0.50;99.90;;;;;;5097987;28;20226;-46
2022/03/04 05:04:22;;;;;;;17.77;9.03;;;-0.50;99.90;;;;;;5105109;28;20207;-53
2022/03/04 05:06:49;;;;;;;70.00;13.37;;;-0.40;99.90;;;;;;5098914;28;20219;-47
2022/03/04 05:09:16;;;;;;;32.87;9.57;;;-0.40;99.90;;;;;;5105927;28;20659;-54
2022/03/04 05:11:43;;;;;;;32.60;9.90;;;-0.50;99.90;;;;;;5084049;28;20230;-50
2022/03/04 05:14:12;;;;;;;38.70;10.07;;;-0.50;99.90;;;;;;5102797;28;20270;-48
2022/03/04 05:16:39;;;;;;;42.30;10.20;;;-0.50;99.90;;;;;;5096011;28;20200;-48
2022/03/04 05:19:06;;;;;;;27.13;9.47;;;-0.60;99.90;;;;;;5105425;28;20204;-46
2022/03/04 05:21:33;;;;;;;25.63;9.23;;;-0.60;99.90;;;;;;5088240;28;20213;-48
2022/03/04 05:24:00;;;;;;;47.37;10.57;;;-0.60;99.90;;;;;;5102007;28;20277;-50
2022/03/04 05:26:28;;;;;;;57.30;11.07;;;-0.60;99.90;;;;;;5084597;28;20212;-53
2022/03/04 05:28:56;;;;;;;56.47;9.90;;;-0.60;99.90;;;;;;5093634;28;20191;-47
2022/03/04 05:31:24;;;;;;;49.40;9.87;;;-0.60;99.90;;;;;;5097677;28;20309;-50
2022/03/04 05:33:51;;;;;;;29.20;9.77;;;-0.50;99.90;;;;;;5100838;28;20194;-53
2022/03/04 05:36:19;;;;;;;28.37;9.17;;;-0.50;99.90;;;;;;5088588;28;20229;-49
2022/03/04 05:38:47;;;;;;;17.50;8.87;;;-0.50;99.90;;;;;;5089907;28;20190;-48
2022/03/04 05:41:15;;;;;;;17.73;8.93;;;-0.50;99.90;;;;;;5096473;28;20213;-49
2022/03/04 05:43:42;;;;;;;20.33;10.53;;;-0.50;99.90;;;;;;5074511;28;20201;-50
2022/03/04 05:46:09;;;;;;;48.97;9.93;;;-0.50;99.90;;;;;;5091765;28;20199;-49
2022/03/04 05:48:37;;;;;;;17.87;9.23;;;-0.50;99.90;;;;;;5096024;27;20217;-52
2022/03/04 05:51:05;;;;;;;41.40;9.50;;;-0.50;99.90;;;;;;5095933;28;20221;-52
2022/03/04 05:53:32;;;;;;;24.70;8.87;;;-0.50;99.90;;;;;;5092869;28;20205;-50
2022/03/04 05:56:00;;;;;;;38.50;9.07;;;-0.60;99.90;;;;;;5110789;27;20197;-48
2022/03/04 05:58:27;;;;;;;39.53;8.43;;;-0.60;99.90;;;;;;5093758;27;20201;-53
2022/03/04 06:00:54;;;;;;;23.13;8.33;;;-0.70;99.90;;;;;;5095308;28;20233;-49
2022/03/04 06:03:20;;;;;;;39.37;8.83;;;-0.70;99.90;;;;;;5104375;28;20197;-53
2022/03/04 06:05:49;;;;;;;22.23;8.20;;;-0.70;99.90;;;;;;5103815;28;20595;-50
2022/03/04 06:08:16;;;;;;;13.70;7.47;;;-0.70;99.90;;;;;;5100880;28;20221;-53
2022/03/04 06:10:43;;;;;;;18.23;8.23;;;-0.70;99.90;;;;;;5102950;28;20213;-54
2022/03/04 06:13:09;;;;;;;16.23;7.73;;;-0.70;99.90;;;;;;5093147;28;20216;-52
2022/03/04 06:15:36;;;;;;;31.97;7.80;;;-0.70;99.90;;;;;;5094816;28;20209;-46
2022/03/04 06:18:03;;;;;;;14.37;8.23;;;-0.70;99.90;;;;;;5105621;28;20534;-50
2022/03/04 06:20:31;;;;;;;14.33;7.57;;;-0.70;99.90;;;;;;5101389;28;20193;-53
2022/03/04 06:23:00;;;;;;;13.47;7.20;;;-0.70;99.90;;;;;;5100773;28;20578;-47
2022/03/04 06:25:27;;;;;;;22.33;7.47;;;-0.70;99.90;;;;;;5103023;28;20205;-50
2022/03/04 06:27:56;;;;;;;29.60;7.70;;;-0.70;99.90;;;;;;5102329;28;20217;-50
2022/03/04 06:30:25;;;;;;;43.00;7.97;;;-0.80;99.90;;;;;;5084607;28;20217;-52
2022/03/04 06:33:29;;;;;;;30.37;7.63;;;-0.80;99.90;;;;;;5099690;28;20209;-51
2022/03/04 06:35:41;;;;;;;10.80;6.57;;;-0.90;99.90;;;;;;5096765;28;20182;-51
2022/03/04 06:38:09;;;;;;;27.97;7.00;;;-0.90;99.90;;;;;;5090141;28;20286;-51
2022/03/04 06:40:37;;;;;;;9.50;6.13;;;-0.90;99.90;;;;;;5100659;28;20209;-49
2022/03/04 06:43:05;;;;;;;48.57;8.40;;;-0.90;99.90;;;;;;5095549;28;20337;-51
2022/03/04 06:45:32;;;;;;;20.37;6.57;;;-0.90;99.90;;;;;;5083507;28;20522;-46
2022/03/04 06:47:59;;;;;;;26.47;6.83;;;-0.80;99.90;;;;;;5101328;28;20221;-50
2022/03/04 06:50:27;;;;;;;15.10;7.47;;;-0.80;99.90;;;;;;5098302;28;21111;-49
2022/03/04 06:52:54;;;;;;;12.03;6.70;;;-0.80;99.90;;;;;;5099756;28;20841;-49
2022/03/04 06:55:23;;;;;;;14.93;6.93;;;-0.70;99.90;;;;;;5087853;28;20963;-50
2022/03/04 06:57:51;;;;;;;18.03;6.87;;;-0.70;99.90;;;;;;5092273;28;20204;-47
2022/03/04 07:00:18;;;;;;;18.33;6.97;;;-0.70;99.90;;;;;;5076875;28;20868;-46
2022/03/04 07:02:45;;;;;;;15.00;6.33;;;-0.70;99.90;;;;;;5093196;28;20228;-49
2022/03/04 07:05:12;;;;;;;24.70;6.83;;;-0.80;99.90;;;;;;5096326;28;20185;-49
2022/03/04 07:07:39;;;;;;;19.57;6.30;;;-0.80;99.90;;;;;;5095019;28;20686;-53
2022/03/04 07:10:07;;;;;;;19.00;6.20;;;-0.80;99.90;;;;;;5097293;28;20209;-50
2022/03/04 07:12:35;;;;;;;20.20;6.93;;;-0.80;99.90;;;;;;5092537;28;20221;-50
2022/03/04 07:15:03;;;;;;;8.80;5.33;;;-0.80;99.90;;;;;;5088237;28;20602;-51
2022/03/04 07:17:31;;;;;;;17.93;6.27;;;-0.80;99.90;;;;;;5094969;28;20390;-45
2022/03/04 07:19:58;;;;;;;12.77;6.00;;;-0.70;99.90;;;;;;5103619;27;20287;-49
2022/03/04 07:22:24;;;;;;;9.23;5.37;;;-0.80;99.90;;;;;;5101621;28;20221;-50
2022/03/04 07:24:51;;;;;;;9.77;6.13;;;-0.70;99.90;;;;;;5105055;28;20677;-47
2022/03/04 07:27:18;;;;;;;11.57;5.73;;;-0.70;99.90;;;;;;5095830;28;20835;-48
2022/03/04 07:29:46;;;;;;;10.57;5.67;;;-0.70;99.90;;;;;;5091263;28;20202;-47
2022/03/04 07:32:13;;;;;;;14.43;5.80;;;-0.70;99.90;;;;;;5095729;28;20689;-49
2022/03/04 07:34:40;;;;;;;13.97;6.93;;;-0.60;99.90;;;;;;5102572;28;20205;-46
2022/03/04 07:37:07;;;;;;;13.23;6.63;;;-0.50;99.90;;;;;;5094782;28;20208;-46
2022/03/04 07:39:34;;;;;;;16.83;6.07;;;-0.50;99.90;;;;;;5097147;27;20216;-47
2022/03/04 07:42:01;;;;;;;16.47;6.80;;;-0.50;99.90;;;;;;5099363;28;20832;-47
2022/03/04 07:44:29;;;;;;;19.27;6.57;;;-0.50;99.90;;;;;;5073301;28;20438;-47
2022/03/04 07:46:57;;;;;;;14.30;6.63;;;-0.50;99.90;;;;;;5097412;27;20197;-46
2022/03/04 07:49:24;;;;;;;25.90;7.07;;;-0.50;99.90;;;;;;5096517;28;20217;-47
2022/03/04 07:51:50;;;;;;;18.40;7.17;;;-0.50;99.90;;;;;;5095632;28;20604;-48
2022/03/04 07:54:18;;;;;;;10.93;6.30;;;-0.50;99.90;;;;;;5091556;28;20197;-46
2022/03/04 07:56:45;;;;;;;12.23;6.00;;;-0.40;99.90;;;;;;5099959;28;20205;-50
2022/03/04 07:59:11;;;;;;;8.63;5.53;;;-0.40;99.90;;;;;;5084037;28;20198;-53
2022/03/04 08:01:38;;;;;;;10.83;6.00;;;-0.30;99.90;;;;;;5084789;28;20226;-46
2022/03/04 08:04:06;;;;;;;9.63;5.23;;;-0.30;99.90;;;;;;5096095;28;20193;-50
2022/03/04 08:06:33;;;;;;;8.87;5.13;;;-0.30;99.90;;;;;;5092813;28;20228;-48
2022/03/04 08:09:00;;;;;;;11.53;6.50;;;-0.30;99.90;;;;;;5097549;28;20261;-51
2022/03/04 08:11:28;;;;;;;10.27;5.80;;;-0.20;99.90;;;;;;5100093;28;20217;-48
2022/03/04 08:13:54;;;;;;;11.00;6.57;;;-0.10;99.90;;;;;;5098069;28;20205;-48
2022/03/04 08:16:21;;;;;;;11.27;6.60;;;-0.10;99.90;;;;;;5079583;28;20205;-48
2022/03/04 08:18:48;;;;;;;9.43;5.30;;;-0.10;99.90;;;;;;5092650;28;20204;-46
2022/03/04 08:21:16;;;;;;;8.07;5.10;;;-0.10;99.90;;;;;;5098136;28;20225;-51
2022/03/04 08:23:43;;;;;;;12.33;5.77;;;0.00;99.90;;;;;;5098493;28;20214;-49
2022/03/04 08:26:10;;;;;;;7.73;4.87;;;0.00;99.90;;;;;;5095903;28;20204;-46
2022/03/04 08:28:37;;;;;;;9.57;5.33;;;0.00;99.90;;;;;;5097985;28;20306;-43
2022/03/04 08:31:10;;;;;;;8.57;5.17;;;0.10;99.90;;;;;;5083701;27;20232;-46
2022/03/04 08:33:37;;;;;;;10.57;6.17;;;0.10;99.90;;;;;;5099489;27;20201;-46
2022/03/04 08:36:04;;;;;;;9.83;5.67;;;0.10;99.90;;;;;;5105697;27;20216;-52
2022/03/04 08:38:34;;;;;;;9.97;5.30;;;0.10;99.90;;;;;;5088075;27;21353;-47
2022/03/04 08:41:01;;;;;;;13.60;6.20;;;0.10;99.90;;;;;;5106821;27;20299;-46
2022/03/04 08:43:27;;;;;;;11.50;5.63;;;0.20;99.90;;;;;;5098401;28;20189;-46
2022/03/04 08:45:54;;;;;;;10.27;6.13;;;0.30;99.90;;;;;;5091988;28;20193;-45
2022/03/04 08:48:23;;;;;;;8.43;4.93;;;0.30;99.90;;;;;;5079359;28;20218;-44
2022/03/04 08:50:50;;;;;;;9.23;5.30;;;0.40;99.90;;;;;;5098756;28;20255;-46
2022/03/04 08:53:17;;;;;;;11.30;5.73;;;0.50;99.90;;;;;;5086131;27;20199;-48
2022/03/04 08:55:46;;;;;;;8.27;5.90;;;0.50;99.90;;;;;;5106691;27;20652;-45
2022/03/04 08:58:13;;;;;;;13.63;6.27;;;0.50;99.90;;;;;;5093991;28;20191;-48
2022/03/04 09:00:40;;;;;;;9.90;6.00;;;0.50;99.90;;;;;;5093355;28;20202;-45
2022/03/04 09:03:08;;;;;;;11.80;6.37;;;0.60;99.90;;;;;;5087191;28;20244;-49
2022/03/04 09:05:35;;;;;;;11.87;6.07;;;0.60;99.90;;;;;;5099276;28;20313;-47
2022/03/04 09:08:05;;;;;;;6.77;5.20;;;0.70;99.90;;;;;;5098923;28;20200;-53
2022/03/04 09:10:32;;;;;;;11.30;5.57;;;0.80;99.90;;;;;;5090604;28;20187;-46
2022/03/04 09:13:00;;;;;;;12.33;5.87;;;0.80;99.90;;;;;;5099934;28;20207;-51
2022/03/04 09:15:27;;;;;;;8.30;5.60;;;0.90;99.90;;;;;;5096830;28;20204;-48
2022/03/04 09:17:53;;;;;;;6.80;5.10;;;1.00;99.90;;;;;;5078919;28;20203;-47
2022/03/04 09:20:20;;;;;;;9.10;5.70;;;1.00;99.90;;;;;;5096055;28;20195;-48
2022/03/04 09:22:47;;;;;;;10.13;6.47;;;1.00;99.90;;;;;;5105701;27;20215;-48
2022/03/04 09:25:14;;;;;;;14.73;5.97;;;1.10;99.90;;;;;;5087103;27;20205;-50
2022/03/04 09:27:41;;;;;;;7.97;5.23;;;1.00;99.90;;;;;;5102299;27;21186;-48
2022/03/04 09:30:12;;;;;;;10.00;6.23;;;1.00;99.90;;;;;;5101825;27;20203;-47
2022/03/04 09:32:39;;;;;;;9.60;5.83;;;1.00;99.90;;;;;;5092276;27;20219;-44
2022/03/04 09:35:07;;;;;;;8.17;5.63;;;1.00;99.90;;;;;;5094708;27;20218;-50
2022/03/04 09:37:34;;;;;;;8.80;6.30;;;1.10;99.90;;;;;;5102878;27;20281;-49
2022/03/04 09:40:01;;;;;;;8.30;5.53;;;1.20;99.90;;;;;;5108205;27;20199;-47
2022/03/04 09:42:28;;;;;;;10.20;5.40;;;1.20;99.90;;;;;;5100193;27;20218;-47
2022/03/04 09:44:55;;;;;;;9.47;5.70;;;1.20;99.90;;;;;;5111415;27;20685;-48
2022/03/04 09:47:24;;;;;;;8.97;5.83;;;1.30;99.90;;;;;;5095576;27;20220;-46
2022/03/04 09:49:52;;;;;;;9.97;5.90;;;1.40;99.90;;;;;;5093139;28;20714;-48
2022/03/04 09:52:18;;;;;;;8.17;5.57;;;1.40;99.90;;;;;;5100908;27;20215;-48
2022/03/04 09:54:48;;;;;;;7.60;5.13;;;1.50;99.90;;;;;;5109586;27;20550;-50
2022/03/04 09:57:15;;;;;;;6.60;4.73;;;1.60;99.90;;;;;;5089665;28;20292;-47
2022/03/04 09:59:43;;;;;;;8.47;5.47;;;1.70;99.90;;;;;;5104513;27;20231;-51
2022/03/04 10:02:11;;;;;;;11.77;5.33;;;1.70;99.90;;;;;;5096784;27;20243;-46
2022/03/04 10:04:42;;;;;;;10.40;5.20;;;1.70;99.90;;;;;;5092003;27;20265;-46
2022/03/04 10:07:15;;;;;;;7.47;5.13;;;1.70;99.90;;;;;;5111798;27;20934;-51
2022/03/04 10:09:43;;;;;;;6.30;4.80;;;1.70;99.90;;;;;;5105831;27;20232;-45
2022/03/04 10:12:12;;;;;;;8.87;5.20;;;1.80;99.90;;;;;;5089936;28;20693;-48
2022/03/04 10:14:58;;;;;;;7.77;5.17;;;1.90;99.90;;;;;;5103614;28;20200;-48
2022/03/04 10:17:25;;;;;;;10.43;5.93;;;1.90;99.90;;;;;;5098661;28;20228;-49
2022/03/04 10:19:54;;;;;;;7.43;5.13;;;2.00;99.90;;;;;;5085007;28;20235;-49
2022/03/04 10:22:22;;;;;;;7.50;5.00;;;2.10;99.90;;;;;;5100929;27;20930;-47
2022/03/04 10:24:49;;;;;;;10.50;6.10;;;2.20;99.90;;;;;;5098365;27;20200;-50
2022/03/04 10:27:17;;;;;;;12.40;6.50;;;2.20;99.90;;;;;;5100426;27;20297;-50
2022/03/04 10:29:45;;;;;;;10.23;6.30;;;2.20;99.90;;;;;;5096004;27;20708;-50
2022/03/04 10:32:15;;;;;;;10.27;6.57;;;2.30;99.90;;;;;;5096870;27;20225;-51
2022/03/04 10:34:46;;;;;;;10.20;6.57;;;2.30;99.90;;;;;;5090233;28;20283;-49
2022/03/04 10:37:16;;;;;;;10.43;6.50;;;2.40;99.90;;;;;;5082381;27;20334;-49
2022/03/04 10:40:04;;;;;;;13.50;6.63;;;2.50;99.90;;;;;;5097888;28;20200;-47
2022/03/04 10:42:42;;;;;;;12.27;7.00;;;2.60;99.90;;;;;;5091141;28;20444;-48
2022/03/04 10:45:11;;;;;;;11.13;5.80;;;2.80;99.90;;;;;;5092775;28;20193;-51
2022/03/04 10:47:44;;;;;;;7.37;5.50;;;2.80;99.90;;;;;;5102633;28;20197;-51
2022/03/04 10:50:11;;;;;;;8.23;5.17;;;2.90;99.90;;;;;;5088427;28;20216;-46
2022/03/04 10:53:00;;;;;;;7.90;5.97;;;2.90;99.90;;;;;;5099600;28;20735;-46
2022/03/04 10:55:29;;;;;;;7.63;5.40;;;3.10;99.90;;;;;;5096407;28;20204;-48
2022/03/04 10:57:57;;;;;;;8.77;5.40;;;3.00;99.90;;;;;;5097973;28;20629;-46
2022/03/04 11:00:25;;;;;;;9.10;5.30;;;3.10;99.90;;;;;;5095369;28;20193;-49
2022/03/04 11:02:53;;;;;;;7.53;5.47;;;3.20;99.90;;;;;;5094603;28;20215;-50
2022/03/04 11:05:21;;;;;;;6.00;4.60;;;3.30;99.90;;;;;;5087954;27;20206;-46
2022/03/04 11:07:49;;;;;;;10.60;5.50;;;3.40;99.90;;;;;;5092813;27;20567;-47
2022/03/04 11:10:20;;;;;;;6.20;4.67;;;3.40;99.90;;;;;;5110141;27;20216;-50
2022/03/04 11:12:50;;;;;;;9.00;4.87;;;3.40;99.90;;;;;;5098336;28;20948;-46
2022/03/04 11:15:18;;;;;;;8.73;5.00;;;3.30;99.90;;;;;;5094084;27;20308;-50
2022/03/04 11:17:47;;;;;;;5.37;4.00;;;3.40;99.90;;;;;;5099457;27;20270;-45
2022/03/04 11:20:15;;;;;;;8.37;4.23;;;3.50;99.90;;;;;;5102904;28;20307;-46
2022/03/04 11:22:44;;;;;;;7.47;4.43;;;3.50;99.90;;;;;;5082781;28;20221;-50
2022/03/04 11:25:13;;;;;;;8.73;4.67;;;3.70;99.90;;;;;;5090566;27;20201;-45
2022/03/04 11:27:44;;;;;;;6.30;4.33;;;3.80;99.90;;;;;;5099466;27;20182;-48
2022/03/04 11:30:31;;;;;;;8.43;5.00;;;3.90;99.90;;;;;;5095490;28;20266;-50
2022/03/04 11:33:23;;;;;;;5.80;3.63;;;3.90;99.90;;;;;;5099750;28;20242;-49
2022/03/04 11:35:57;;;;;;;4.53;3.10;;;4.00;99.90;;;;;;5090634;27;20197;-47
2022/03/04 11:39:07;;;;;;;4.03;3.30;;;4.20;99.90;;;;;;5086395;27;20595;-54
2022/03/04 11:41:39;;;;;;;5.90;3.40;;;4.20;99.90;;;;;;5086940;27;20240;-53
2022/03/04 11:44:17;;;;;;;5.33;3.77;;;4.40;99.90;;;;;;5101347;27;20201;-54
2022/03/04 11:46:49;;;;;;;5.40;3.00;;;4.50;99.90;;;;;;5095642;27;20193;-56
2022/03/04 11:49:25;;;;;;;3.57;2.80;;;4.60;99.90;;;;;;5102499;27;20214;-52
2022/03/04 11:52:19;;;;;;;4.63;2.87;;;4.70;99.90;;;;;;5088902;27;21001;-52
2022/03/04 11:55:07;;;;;;;3.93;3.40;;;4.70;99.90;;;;;;5093530;27;20191;-46
2022/03/04 11:57:37;;;;;;;4.77;2.93;;;4.80;99.90;;;;;;5100879;27;20948;-48
2022/03/04 12:00:24;;;;;;;4.57;3.00;;;4.80;99.90;;;;;;5086948;28;20794;-48
2022/03/04 12:02:52;;;;;;;4.37;3.00;;;5.00;99.90;;;;;;5102626;27;20194;-49
2022/03/04 12:05:26;;;;;;;4.70;2.93;;;5.00;99.90;;;;;;5102350;27;20208;-53
2022/03/04 12:08:09;;;;;;;3.87;3.03;;;5.00;99.90;;;;;;5085020;28;20410;-50
2022/03/04 12:10:44;;;;;;;4.53;3.03;;;5.10;99.90;;;;;;5091838;28;20300;-50
2022/03/04 12:13:18;;;;;;;3.63;2.97;;;5.10;99.90;;;;;;5101880;28;20304;-51
2022/03/04 12:15:51;;;;;;;3.80;2.80;;;5.10;99.90;;;;;;5091182;28;20209;-49
2022/03/04 12:18:25;;;;;;;7.37;3.20;;;5.20;99.90;;;;;;5098961;28;20235;-53
2022/03/04 12:21:23;;;;;;;5.47;2.97;;;5.20;99.90;;;;;;5099198;28;20400;-48
2022/03/04 12:24:01;;;;;;;4.03;2.67;;;5.20;99.90;;;;;;5090537;27;20435;-49
2022/03/04 12:26:36;;;;;;;5.07;2.77;;;5.30;99.90;;;;;;5085940;28;20213;-53
2022/03/04 12:29:07;;;;;;;4.47;3.17;;;5.40;99.90;;;;;;5101207;28;20217;-51
2022/03/04 12:31:40;;;;;;;2.93;2.50;;;5.50;99.90;;;;;;5085821;28;20229;-48
2022/03/04 12:34:19;;;;;;;3.33;2.90;;;5.60;99.90;;;;;;5102000;28;20222;-49
2022/03/04 12:36:46;;;;;;;3.87;2.40;;;5.60;99.90;;;;;;5098954;28;20384;-50
2022/03/04 12:39:18;;;;;;;2.63;2.40;;;5.60;99.90;;;;;;5089247;28;20284;-48
2022/03/04 12:41:46;;;;;;;3.13;2.53;;;5.60;99.90;;;;;;5087837;28;20253;-50
2022/03/04 12:44:13;;;;;;;6.13;2.40;;;5.70;99.90;;;;;;5099767;28;20246;-50
2022/03/04 12:46:44;;;;;;;3.70;2.90;;;5.80;99.90;;;;;;5083885;28;20429;-46
2022/03/04 12:49:12;;;;;;;4.07;2.50;;;5.80;99.90;;;;;;5100391;28;20217;-51